sensor_id;sensor_type;location;lat;lon;timestamp;P1;durP1;ratioP1;P2;durP2;ratioP2
9948;SDS011;5013;51.840;8.276;2023-06-26T00:01:50;9.40;;;8.70;;
9948;SDS011;5013;51.840;8.276;2023-06-26T00:04:16;10.53;;;9.63;;
9948;SDS011;5013;51.840;8.276;2023-06-26T00:06:41;11.33;;;10.27;;
9948;SDS011;5013;51.840;8.276;2023-06-26T00:09:07;10.13;;;9.33;;
9948;SDS011;5013;51.840;8.276;2023-06-26T00:11:33;10.80;;;9.90;;
9948;SDS011;5013;51.840;8.276;2023-06-26T00:14:02;11.47;;;9.83;;
9948;SDS011;5013;51.840;8.276;2023-06-26T00:16:27;9.97;;;8.83;;
9948;SDS011;5013;51.840;8.276;2023-06-26T00:18:53;9.90;;;8.90;;
9948;SDS011;5013;51.840;8.276;2023-06-26T00:21:19;10.90;;;9.97;;
9948;SDS011;5013;51.840;8.276;2023-06-26T00:23:45;10.87;;;9.40;;
9948;SDS011;5013;51.840;8.276;2023-06-26T00:26:11;11.67;;;9.23;;
9948;SDS011;5013;51.840;8.276;2023-06-26T00:28:37;10.53;;;9.63;;
9948;SDS011;5013;51.840;8.276;2023-06-26T00:31:03;9.47;;;8.30;;
9948;SDS011;5013;51.840;8.276;2023-06-26T00:33:28;13.67;;;9.90;;
9948;SDS011;5013;51.840;8.276;2023-06-26T00:35:54;11.20;;;10.23;;
9948;SDS011;5013;51.840;8.276;2023-06-26T00:38:19;10.07;;;9.00;;
9948;SDS011;5013;51.840;8.276;2023-06-26T00:40:46;11.33;;;8.70;;
9948;SDS011;5013;51.840;8.276;2023-06-26T00:43:11;11.40;;;8.80;;
9948;SDS011;5013;51.840;8.276;2023-06-26T00:45:37;10.03;;;9.07;;
9948;SDS011;5013;51.840;8.276;2023-06-26T00:48:02;10.30;;;9.40;;
9948;SDS011;5013;51.840;8.276;2023-06-26T00:50:28;9.47;;;8.73;;
9948;SDS011;5013;51.840;8.276;2023-06-26T00:52:54;10.13;;;9.13;;
9948;SDS011;5013;51.840;8.276;2023-06-26T00:55:25;13.40;;;10.23;;
9948;SDS011;5013;51.840;8.276;2023-06-26T00:57:54;9.40;;;8.33;;
9948;SDS011;5013;51.840;8.276;2023-06-26T01:00:20;9.93;;;8.80;;
9948;SDS011;5013;51.840;8.276;2023-06-26T01:02:46;8.70;;;7.90;;
9948;SDS011;5013;51.840;8.276;2023-06-26T01:05:11;9.60;;;8.90;;
9948;SDS011;5013;51.840;8.276;2023-06-26T01:07:43;9.57;;;8.70;;
9948;SDS011;5013;51.840;8.276;2023-06-26T01:10:09;11.20;;;8.83;;
9948;SDS011;5013;51.840;8.276;2023-06-26T01:12:35;11.87;;;8.20;;
9948;SDS011;5013;51.840;8.276;2023-06-26T01:15:03;11.60;;;8.07;;
9948;SDS011;5013;51.840;8.276;2023-06-26T01:17:29;11.60;;;10.10;;
9948;SDS011;5013;51.840;8.276;2023-06-26T01:19:57;10.57;;;9.53;;
9948;SDS011;5013;51.840;8.276;2023-06-26T01:22:29;10.73;;;9.93;;
9948;SDS011;5013;51.840;8.276;2023-06-26T01:27:28;9.60;;;8.40;;
9948;SDS011;5013;51.840;8.276;2023-06-26T01:29:57;8.83;;;8.07;;
9948;SDS011;5013;51.840;8.276;2023-06-26T01:32:28;10.00;;;8.07;;
9948;SDS011;5013;51.840;8.276;2023-06-26T01:34:54;9.07;;;8.13;;
9948;SDS011;5013;51.840;8.276;2023-06-26T01:37:20;9.87;;;8.67;;
9948;SDS011;5013;51.840;8.276;2023-06-26T01:39:45;10.13;;;8.97;;
9948;SDS011;5013;51.840;8.276;2023-06-26T01:42:11;9.70;;;8.90;;
9948;SDS011;5013;51.840;8.276;2023-06-26T01:44:37;8.90;;;8.00;;
9948;SDS011;5013;51.840;8.276;2023-06-26T01:47:08;11.03;;;8.07;;
9948;SDS011;5013;51.840;8.276;2023-06-26T01:49:46;9.33;;;8.53;;
9948;SDS011;5013;51.840;8.276;2023-06-26T01:52:22;10.20;;;9.33;;
9948;SDS011;5013;51.840;8.276;2023-06-26T01:58:02;13.50;;;10.33;;
9948;SDS011;5013;51.840;8.276;2023-06-26T02:00:28;12.57;;;9.90;;
9948;SDS011;5013;51.840;8.276;2023-06-26T02:02:54;12.37;;;10.83;;
9948;SDS011;5013;51.840;8.276;2023-06-26T02:05:19;10.90;;;9.43;;
9948;SDS011;5013;51.840;8.276;2023-06-26T02:07:45;12.93;;;10.43;;
9948;SDS011;5013;51.840;8.276;2023-06-26T02:10:11;13.40;;;10.97;;
9948;SDS011;5013;51.840;8.276;2023-06-26T02:12:37;12.70;;;10.87;;
9948;SDS011;5013;51.840;8.276;2023-06-26T02:15:03;14.07;;;10.60;;
9948;SDS011;5013;51.840;8.276;2023-06-26T02:17:29;12.27;;;9.77;;
9948;SDS011;5013;51.840;8.276;2023-06-26T02:19:55;10.03;;;9.03;;
9948;SDS011;5013;51.840;8.276;2023-06-26T02:22:21;15.27;;;10.90;;
9948;SDS011;5013;51.840;8.276;2023-06-26T02:24:46;14.60;;;9.87;;
9948;SDS011;5013;51.840;8.276;2023-06-26T02:27:12;10.37;;;9.40;;
9948;SDS011;5013;51.840;8.276;2023-06-26T02:29:38;10.23;;;9.27;;
9948;SDS011;5013;51.840;8.276;2023-06-26T02:32:05;9.83;;;8.83;;
9948;SDS011;5013;51.840;8.276;2023-06-26T02:34:31;11.20;;;9.57;;
9948;SDS011;5013;51.840;8.276;2023-06-26T02:36:56;11.40;;;9.50;;
9948;SDS011;5013;51.840;8.276;2023-06-26T02:39:23;10.60;;;9.70;;
9948;SDS011;5013;51.840;8.276;2023-06-26T02:41:49;10.27;;;9.10;;
9948;SDS011;5013;51.840;8.276;2023-06-26T02:44:14;13.30;;;9.17;;
9948;SDS011;5013;51.840;8.276;2023-06-26T02:46:40;9.03;;;8.00;;
9948;SDS011;5013;51.840;8.276;2023-06-26T02:49:06;10.23;;;9.23;;
9948;SDS011;5013;51.840;8.276;2023-06-26T02:51:32;9.23;;;8.33;;
9948;SDS011;5013;51.840;8.276;2023-06-26T02:53:58;10.53;;;9.53;;
9948;SDS011;5013;51.840;8.276;2023-06-26T02:56:24;11.87;;;9.67;;
9948;SDS011;5013;51.840;8.276;2023-06-26T02:58:53;9.80;;;8.80;;
9948;SDS011;5013;51.840;8.276;2023-06-26T03:01:22;10.67;;;9.60;;
9948;SDS011;5013;51.840;8.276;2023-06-26T03:03:47;10.97;;;9.00;;
9948;SDS011;5013;51.840;8.276;2023-06-26T03:06:13;10.17;;;9.17;;
9948;SDS011;5013;51.840;8.276;2023-06-26T03:08:40;9.57;;;8.67;;
9948;SDS011;5013;51.840;8.276;2023-06-26T03:11:06;10.30;;;9.10;;
9948;SDS011;5013;51.840;8.276;2023-06-26T03:13:33;10.30;;;9.43;;
9948;SDS011;5013;51.840;8.276;2023-06-26T03:15:59;11.47;;;8.73;;
9948;SDS011;5013;51.840;8.276;2023-06-26T03:18:25;9.37;;;8.57;;
9948;SDS011;5013;51.840;8.276;2023-06-26T03:20:51;9.03;;;8.23;;
9948;SDS011;5013;51.840;8.276;2023-06-26T03:23:19;11.33;;;9.40;;
9948;SDS011;5013;51.840;8.276;2023-06-26T03:25:45;10.33;;;9.23;;
9948;SDS011;5013;51.840;8.276;2023-06-26T03:28:11;11.27;;;8.73;;
9948;SDS011;5013;51.840;8.276;2023-06-26T03:30:37;9.13;;;8.37;;
9948;SDS011;5013;51.840;8.276;2023-06-26T03:33:02;10.03;;;8.67;;
9948;SDS011;5013;51.840;8.276;2023-06-26T03:35:28;12.93;;;9.57;;
9948;SDS011;5013;51.840;8.276;2023-06-26T03:37:54;9.47;;;8.57;;
9948;SDS011;5013;51.840;8.276;2023-06-26T03:40:19;13.30;;;9.80;;
9948;SDS011;5013;51.840;8.276;2023-06-26T03:42:45;10.97;;;9.37;;
9948;SDS011;5013;51.840;8.276;2023-06-26T03:45:10;12.63;;;8.90;;
9948;SDS011;5013;51.840;8.276;2023-06-26T03:47:36;10.77;;;9.67;;
9948;SDS011;5013;51.840;8.276;2023-06-26T03:50:02;10.07;;;9.00;;
9948;SDS011;5013;51.840;8.276;2023-06-26T03:52:27;16.17;;;9.83;;
9948;SDS011;5013;51.840;8.276;2023-06-26T03:54:55;11.53;;;9.73;;
9948;SDS011;5013;51.840;8.276;2023-06-26T03:57:24;12.13;;;9.53;;
9948;SDS011;5013;51.840;8.276;2023-06-26T03:59:50;12.47;;;9.17;;
9948;SDS011;5013;51.840;8.276;2023-06-26T04:02:16;13.67;;;9.00;;
9948;SDS011;5013;51.840;8.276;2023-06-26T04:04:42;10.63;;;8.93;;
9948;SDS011;5013;51.840;8.276;2023-06-26T04:07:07;9.63;;;8.63;;
9948;SDS011;5013;51.840;8.276;2023-06-26T04:09:33;14.07;;;9.90;;
9948;SDS011;5013;51.840;8.276;2023-06-26T04:11:58;11.63;;;9.17;;
9948;SDS011;5013;51.840;8.276;2023-06-26T04:14:24;14.03;;;9.20;;
9948;SDS011;5013;51.840;8.276;2023-06-26T04:16:50;12.00;;;8.70;;
9948;SDS011;5013;51.840;8.276;2023-06-26T04:19:15;11.10;;;9.13;;
9948;SDS011;5013;51.840;8.276;2023-06-26T04:21:41;12.57;;;8.80;;
9948;SDS011;5013;51.840;8.276;2023-06-26T04:24:07;9.63;;;8.07;;
9948;SDS011;5013;51.840;8.276;2023-06-26T04:26:32;9.67;;;7.60;;
9948;SDS011;5013;51.840;8.276;2023-06-26T04:28:58;8.87;;;7.83;;
9948;SDS011;5013;51.840;8.276;2023-06-26T04:31:25;12.40;;;7.90;;
9948;SDS011;5013;51.840;8.276;2023-06-26T04:33:54;7.60;;;7.00;;
9948;SDS011;5013;51.840;8.276;2023-06-26T04:36:20;8.83;;;8.03;;
9948;SDS011;5013;51.840;8.276;2023-06-26T04:38:46;9.47;;;7.77;;
9948;SDS011;5013;51.840;8.276;2023-06-26T04:41:13;7.57;;;6.97;;
9948;SDS011;5013;51.840;8.276;2023-06-26T04:43:39;12.50;;;7.37;;
9948;SDS011;5013;51.840;8.276;2023-06-26T04:46:05;7.57;;;6.77;;
9948;SDS011;5013;51.840;8.276;2023-06-26T04:48:31;7.77;;;7.10;;
9948;SDS011;5013;51.840;8.276;2023-06-26T04:50:57;8.30;;;6.47;;
9948;SDS011;5013;51.840;8.276;2023-06-26T04:53:23;7.17;;;6.67;;
9948;SDS011;5013;51.840;8.276;2023-06-26T04:55:50;7.53;;;6.80;;
9948;SDS011;5013;51.840;8.276;2023-06-26T04:58:16;7.60;;;7.00;;
9948;SDS011;5013;51.840;8.276;2023-06-26T05:00:41;7.30;;;6.65;;
9948;SDS011;5013;51.840;8.276;2023-06-26T05:03:07;6.78;;;6.15;;
9948;SDS011;5013;51.840;8.276;2023-06-26T05:05:34;7.32;;;6.57;;
9948;SDS011;5013;51.840;8.276;2023-06-26T05:08:06;14.80;;;7.07;;
9948;SDS011;5013;51.840;8.276;2023-06-26T05:10:39;7.55;;;6.85;;
9948;SDS011;5013;51.840;8.276;2023-06-26T05:13:04;8.55;;;6.32;;
9948;SDS011;5013;51.840;8.276;2023-06-26T05:15:30;6.85;;;6.22;;
9948;SDS011;5013;51.840;8.276;2023-06-26T05:17:55;7.50;;;6.82;;
9948;SDS011;5013;51.840;8.276;2023-06-26T05:20:21;7.43;;;6.50;;
9948;SDS011;5013;51.840;8.276;2023-06-26T05:22:47;6.47;;;6.07;;
9948;SDS011;5013;51.840;8.276;2023-06-26T05:25:13;7.97;;;7.22;;
9948;SDS011;5013;51.840;8.276;2023-06-26T05:27:40;7.75;;;7.05;;
9948;SDS011;5013;51.840;8.276;2023-06-26T05:30:06;7.28;;;6.68;;
9948;SDS011;5013;51.840;8.276;2023-06-26T05:32:33;8.10;;;7.40;;
9948;SDS011;5013;51.840;8.276;2023-06-26T05:35:00;8.07;;;7.47;;
9948;SDS011;5013;51.840;8.276;2023-06-26T05:37:29;7.22;;;6.63;;
9948;SDS011;5013;51.840;8.276;2023-06-26T05:39:55;10.80;;;6.85;;
9948;SDS011;5013;51.840;8.276;2023-06-26T05:42:21;8.45;;;7.03;;
9948;SDS011;5013;51.840;8.276;2023-06-26T05:44:47;9.35;;;6.72;;
9948;SDS011;5013;51.840;8.276;2023-06-26T05:47:12;9.07;;;7.38;;
9948;SDS011;5013;51.840;8.276;2023-06-26T05:49:38;8.68;;;7.88;;
9948;SDS011;5013;51.840;8.276;2023-06-26T05:52:04;8.18;;;7.47;;
9948;SDS011;5013;51.840;8.276;2023-06-26T05:54:30;9.18;;;7.40;;
9948;SDS011;5013;51.840;8.276;2023-06-26T05:56:56;8.73;;;7.82;;
9948;SDS011;5013;51.840;8.276;2023-06-26T05:59:26;8.60;;;7.72;;
9948;SDS011;5013;51.840;8.276;2023-06-26T06:01:51;10.00;;;7.47;;
9948;SDS011;5013;51.840;8.276;2023-06-26T06:04:17;7.97;;;7.25;;
9948;SDS011;5013;51.840;8.276;2023-06-26T06:06:43;8.93;;;8.13;;
9948;SDS011;5013;51.840;8.276;2023-06-26T06:09:09;9.13;;;7.97;;
9948;SDS011;5013;51.840;8.276;2023-06-26T06:11:34;8.55;;;7.80;;
9948;SDS011;5013;51.840;8.276;2023-06-26T06:14:00;7.55;;;7.05;;
9948;SDS011;5013;51.840;8.276;2023-06-26T06:16:26;8.88;;;7.93;;
9948;SDS011;5013;51.840;8.276;2023-06-26T06:18:53;10.52;;;8.35;;
9948;SDS011;5013;51.840;8.276;2023-06-26T06:21:19;8.18;;;7.45;;
9948;SDS011;5013;51.840;8.276;2023-06-26T06:23:45;8.15;;;7.38;;
9948;SDS011;5013;51.840;8.276;2023-06-26T06:26:10;8.68;;;7.95;;
9948;SDS011;5013;51.840;8.276;2023-06-26T06:28:36;8.50;;;7.70;;
9948;SDS011;5013;51.840;8.276;2023-06-26T06:31:01;8.57;;;7.32;;
9948;SDS011;5013;51.840;8.276;2023-06-26T06:33:27;8.60;;;7.88;;
9948;SDS011;5013;51.840;8.276;2023-06-26T06:35:53;10.02;;;7.93;;
9948;SDS011;5013;51.840;8.276;2023-06-26T06:38:18;11.18;;;8.80;;
9948;SDS011;5013;51.840;8.276;2023-06-26T06:40:44;10.15;;;7.40;;
9948;SDS011;5013;51.840;8.276;2023-06-26T06:43:10;9.68;;;8.82;;
9948;SDS011;5013;51.840;8.276;2023-06-26T06:45:35;15.43;;;8.50;;
9948;SDS011;5013;51.840;8.276;2023-06-26T06:48:02;11.55;;;8.18;;
9948;SDS011;5013;51.840;8.276;2023-06-26T06:50:28;10.75;;;9.55;;
9948;SDS011;5013;51.840;8.276;2023-06-26T06:52:54;11.82;;;10.13;;
9948;SDS011;5013;51.840;8.276;2023-06-26T06:55:19;10.10;;;8.43;;
9948;SDS011;5013;51.840;8.276;2023-06-26T06:57:45;12.63;;;9.40;;
9948;SDS011;5013;51.840;8.276;2023-06-26T07:00:11;14.20;;;11.63;;
9948;SDS011;5013;51.840;8.276;2023-06-26T07:02:40;10.27;;;9.23;;
9948;SDS011;5013;51.840;8.276;2023-06-26T07:05:07;10.45;;;9.45;;
9948;SDS011;5013;51.840;8.276;2023-06-26T07:07:33;10.43;;;9.18;;
9948;SDS011;5013;51.840;8.276;2023-06-26T07:10:03;10.98;;;10.00;;
9948;SDS011;5013;51.840;8.276;2023-06-26T07:12:34;11.80;;;10.50;;
9948;SDS011;5013;51.840;8.276;2023-06-26T07:15:00;13.13;;;9.85;;
9948;SDS011;5013;51.840;8.276;2023-06-26T07:17:27;10.88;;;9.40;;
9948;SDS011;5013;51.840;8.276;2023-06-26T07:19:53;10.25;;;9.35;;
9948;SDS011;5013;51.840;8.276;2023-06-26T07:22:18;12.95;;;9.05;;
9948;SDS011;5013;51.840;8.276;2023-06-26T07:24:46;12.30;;;9.68;;
9948;SDS011;5013;51.840;8.276;2023-06-26T07:27:12;10.85;;;9.07;;
9948;SDS011;5013;51.840;8.276;2023-06-26T07:29:41;11.80;;;9.60;;
9948;SDS011;5013;51.840;8.276;2023-06-26T07:32:07;13.20;;;9.52;;
9948;SDS011;5013;51.840;8.276;2023-06-26T07:34:33;16.10;;;9.45;;
9948;SDS011;5013;51.840;8.276;2023-06-26T07:36:58;10.48;;;8.55;;
9948;SDS011;5013;51.840;8.276;2023-06-26T07:39:24;11.40;;;9.07;;
9948;SDS011;5013;51.840;8.276;2023-06-26T07:41:50;14.85;;;9.50;;
9948;SDS011;5013;51.840;8.276;2023-06-26T07:44:16;10.65;;;9.07;;
9948;SDS011;5013;51.840;8.276;2023-06-26T07:46:41;12.23;;;9.27;;
9948;SDS011;5013;51.840;8.276;2023-06-26T07:49:07;14.38;;;10.13;;
9948;SDS011;5013;51.840;8.276;2023-06-26T07:51:32;14.18;;;9.95;;
9948;SDS011;5013;51.840;8.276;2023-06-26T07:53:58;20.80;;;9.93;;
9948;SDS011;5013;51.840;8.276;2023-06-26T07:56:23;12.95;;;9.35;;
9948;SDS011;5013;51.840;8.276;2023-06-26T07:58:49;14.55;;;9.20;;
9948;SDS011;5013;51.840;8.276;2023-06-26T08:01:14;16.60;;;9.23;;
9948;SDS011;5013;51.840;8.276;2023-06-26T08:03:40;10.35;;;8.98;;
9948;SDS011;5013;51.840;8.276;2023-06-26T08:06:07;11.65;;;8.68;;
9948;SDS011;5013;51.840;8.276;2023-06-26T08:08:32;15.40;;;9.13;;
9948;SDS011;5013;51.840;8.276;2023-06-26T08:10:58;8.95;;;7.53;;
9948;SDS011;5013;51.840;8.276;2023-06-26T08:13:24;13.18;;;9.48;;
9948;SDS011;5013;51.840;8.276;2023-06-26T08:15:50;13.82;;;9.68;;
9948;SDS011;5013;51.840;8.276;2023-06-26T08:18:16;13.07;;;9.18;;
9948;SDS011;5013;51.840;8.276;2023-06-26T08:20:42;15.52;;;9.25;;
9948;SDS011;5013;51.840;8.276;2023-06-26T08:23:08;17.25;;;8.48;;
9948;SDS011;5013;51.840;8.276;2023-06-26T08:25:33;13.77;;;8.73;;
9948;SDS011;5013;51.840;8.276;2023-06-26T08:27:59;13.52;;;8.73;;
9948;SDS011;5013;51.840;8.276;2023-06-26T08:30:24;15.05;;;8.35;;
9948;SDS011;5013;51.840;8.276;2023-06-26T08:32:53;16.00;;;9.52;;
9948;SDS011;5013;51.840;8.276;2023-06-26T08:35:21;14.77;;;9.85;;
9948;SDS011;5013;51.840;8.276;2023-06-26T08:37:47;15.57;;;9.85;;
9948;SDS011;5013;51.840;8.276;2023-06-26T08:40:12;16.25;;;8.63;;
9948;SDS011;5013;51.840;8.276;2023-06-26T08:42:42;14.80;;;8.13;;
9948;SDS011;5013;51.840;8.276;2023-06-26T08:45:07;12.38;;;8.80;;
9948;SDS011;5013;51.840;8.276;2023-06-26T08:47:33;13.75;;;9.48;;
9948;SDS011;5013;51.840;8.276;2023-06-26T08:52:45;10.23;;;8.75;;
9948;SDS011;5013;51.840;8.276;2023-06-26T08:55:19;14.25;;;9.07;;
9948;SDS011;5013;51.840;8.276;2023-06-26T08:57:49;19.50;;;10.10;;
9948;SDS011;5013;51.840;8.276;2023-06-26T09:00:15;11.15;;;9.40;;
9948;SDS011;5013;51.840;8.276;2023-06-26T09:02:42;13.60;;;9.45;;
9948;SDS011;5013;51.840;8.276;2023-06-26T09:05:08;16.00;;;8.73;;
9948;SDS011;5013;51.840;8.276;2023-06-26T09:07:34;13.80;;;9.27;;
9948;SDS011;5013;51.840;8.276;2023-06-26T09:09:59;13.63;;;8.95;;
9948;SDS011;5013;51.840;8.276;2023-06-26T09:12:26;14.23;;;9.15;;
9948;SDS011;5013;51.840;8.276;2023-06-26T09:14:53;10.80;;;7.80;;
9948;SDS011;5013;51.840;8.276;2023-06-26T09:17:23;11.60;;;7.93;;
9948;SDS011;5013;51.840;8.276;2023-06-26T09:19:54;12.07;;;8.45;;
9948;SDS011;5013;51.840;8.276;2023-06-26T09:22:20;14.23;;;8.82;;
9948;SDS011;5013;51.840;8.276;2023-06-26T09:24:46;18.65;;;8.77;;
9948;SDS011;5013;51.840;8.276;2023-06-26T09:27:12;13.02;;;8.68;;
9948;SDS011;5013;51.840;8.276;2023-06-26T09:29:38;10.88;;;8.20;;
9948;SDS011;5013;51.840;8.276;2023-06-26T09:32:04;12.98;;;8.98;;
9948;SDS011;5013;51.840;8.276;2023-06-26T09:34:30;11.90;;;7.88;;
9948;SDS011;5013;51.840;8.276;2023-06-26T09:36:57;15.23;;;8.38;;
9948;SDS011;5013;51.840;8.276;2023-06-26T09:39:23;13.57;;;8.13;;
9948;SDS011;5013;51.840;8.276;2023-06-26T09:41:49;11.32;;;7.90;;
9948;SDS011;5013;51.840;8.276;2023-06-26T09:44:15;17.27;;;8.10;;
9948;SDS011;5013;51.840;8.276;2023-06-26T09:46:44;15.50;;;8.02;;
9948;SDS011;5013;51.840;8.276;2023-06-26T09:49:10;16.20;;;9.02;;
9948;SDS011;5013;51.840;8.276;2023-06-26T09:51:38;12.00;;;7.13;;
9948;SDS011;5013;51.840;8.276;2023-06-26T09:54:06;13.93;;;7.63;;
9948;SDS011;5013;51.840;8.276;2023-06-26T09:56:32;12.27;;;7.00;;
9948;SDS011;5013;51.840;8.276;2023-06-26T09:59:02;16.08;;;8.18;;
9948;SDS011;5013;51.840;8.276;2023-06-26T10:01:30;12.80;;;7.10;;
9948;SDS011;5013;51.840;8.276;2023-06-26T10:03:57;13.07;;;8.40;;
9948;SDS011;5013;51.840;8.276;2023-06-26T10:07:10;14.05;;;6.85;;
9948;SDS011;5013;51.840;8.276;2023-06-26T10:09:12;14.23;;;7.18;;
9948;SDS011;5013;51.840;8.276;2023-06-26T10:11:58;17.48;;;7.35;;
9948;SDS011;5013;51.840;8.276;2023-06-26T10:14:33;13.82;;;7.30;;
9948;SDS011;5013;51.840;8.276;2023-06-26T10:17:01;12.88;;;7.40;;
9948;SDS011;5013;51.840;8.276;2023-06-26T10:19:31;10.48;;;6.78;;
9948;SDS011;5013;51.840;8.276;2023-06-26T10:21:59;10.20;;;6.35;;
9948;SDS011;5013;51.840;8.276;2023-06-26T10:24:27;8.35;;;6.60;;
9948;SDS011;5013;51.840;8.276;2023-06-26T10:27:00;10.45;;;6.20;;
9948;SDS011;5013;51.840;8.276;2023-06-26T10:29:30;7.38;;;5.85;;
9948;SDS011;5013;51.840;8.276;2023-06-26T10:31:57;11.32;;;6.32;;
9948;SDS011;5013;51.840;8.276;2023-06-26T10:34:25;11.70;;;6.25;;
9948;SDS011;5013;51.840;8.276;2023-06-26T10:37:01;10.98;;;6.07;;
9948;SDS011;5013;51.840;8.276;2023-06-26T10:39:32;8.45;;;5.45;;
9948;SDS011;5013;51.840;8.276;2023-06-26T10:42:20;11.45;;;6.07;;
9948;SDS011;5013;51.840;8.276;2023-06-26T10:45:08;15.65;;;6.95;;
9948;SDS011;5013;51.840;8.276;2023-06-26T10:47:36;11.80;;;5.60;;
9948;SDS011;5013;51.840;8.276;2023-06-26T10:50:22;14.00;;;6.07;;
9948;SDS011;5013;51.840;8.276;2023-06-26T10:53:08;7.85;;;5.55;;
9948;SDS011;5013;51.840;8.276;2023-06-26T10:55:35;9.00;;;5.32;;
9948;SDS011;5013;51.840;8.276;2023-06-26T10:58:01;12.38;;;6.13;;
9948;SDS011;5013;51.840;8.276;2023-06-26T11:00:27;11.25;;;5.70;;
9948;SDS011;5013;51.840;8.276;2023-06-26T11:02:53;7.18;;;5.40;;
9948;SDS011;5013;51.840;8.276;2023-06-26T11:05:32;12.23;;;5.50;;
9948;SDS011;5013;51.840;8.276;2023-06-26T11:08:04;12.88;;;5.18;;
9948;SDS011;5013;51.840;8.276;2023-06-26T11:10:48;8.05;;;5.55;;
9948;SDS011;5013;51.840;8.276;2023-06-26T11:13:16;8.90;;;4.82;;
9948;SDS011;5013;51.840;8.276;2023-06-26T11:15:43;7.28;;;5.15;;
9948;SDS011;5013;51.840;8.276;2023-06-26T11:18:12;10.73;;;5.40;;
9948;SDS011;5013;51.840;8.276;2023-06-26T11:20:39;6.68;;;4.78;;
9948;SDS011;5013;51.840;8.276;2023-06-26T11:23:04;8.57;;;5.10;;
9948;SDS011;5013;51.840;8.276;2023-06-26T11:25:34;6.82;;;4.25;;
9948;SDS011;5013;51.840;8.276;2023-06-26T11:28:01;5.80;;;3.63;;
9948;SDS011;5013;51.840;8.276;2023-06-26T11:30:28;6.35;;;3.90;;
9948;SDS011;5013;51.840;8.276;2023-06-26T11:33:01;4.43;;;4.00;;
9948;SDS011;5013;51.840;8.276;2023-06-26T11:35:36;8.13;;;4.30;;
9948;SDS011;5013;51.840;8.276;2023-06-26T11:38:02;10.95;;;4.43;;
9948;SDS011;5013;51.840;8.276;2023-06-26T11:40:35;5.25;;;3.70;;
9948;SDS011;5013;51.840;8.276;2023-06-26T11:43:01;5.38;;;4.18;;
9948;SDS011;5013;51.840;8.276;2023-06-26T11:45:28;6.00;;;3.97;;
9948;SDS011;5013;51.840;8.276;2023-06-26T11:47:55;4.72;;;3.45;;
9948;SDS011;5013;51.840;8.276;2023-06-26T11:50:22;5.00;;;3.30;;
9948;SDS011;5013;51.840;8.276;2023-06-26T11:52:54;8.38;;;3.63;;
9948;SDS011;5013;51.840;8.276;2023-06-26T11:55:22;4.90;;;3.70;;
9948;SDS011;5013;51.840;8.276;2023-06-26T11:57:55;6.20;;;3.63;;
9948;SDS011;5013;51.840;8.276;2023-06-26T12:00:22;8.48;;;3.83;;
9948;SDS011;5013;51.840;8.276;2023-06-26T12:02:48;5.97;;;3.75;;
9948;SDS011;5013;51.840;8.276;2023-06-26T12:05:14;7.35;;;3.67;;
9948;SDS011;5013;51.840;8.276;2023-06-26T12:07:42;5.35;;;4.05;;
9948;SDS011;5013;51.840;8.276;2023-06-26T12:10:08;4.90;;;3.70;;
9948;SDS011;5013;51.840;8.276;2023-06-26T12:12:36;6.30;;;3.53;;
9948;SDS011;5013;51.840;8.276;2023-06-26T12:15:02;3.78;;;3.47;;
9948;SDS011;5013;51.840;8.276;2023-06-26T12:17:28;4.32;;;3.63;;
9948;SDS011;5013;51.840;8.276;2023-06-26T12:19:54;4.80;;;3.17;;
9948;SDS011;5013;51.840;8.276;2023-06-26T12:22:20;5.28;;;3.30;;
9948;SDS011;5013;51.840;8.276;2023-06-26T12:24:46;3.78;;;3.47;;
9948;SDS011;5013;51.840;8.276;2023-06-26T12:27:13;10.02;;;3.20;;
9948;SDS011;5013;51.840;8.276;2023-06-26T12:29:40;2.80;;;2.58;;
9948;SDS011;5013;51.840;8.276;2023-06-26T12:32:12;6.07;;;3.33;;
9948;SDS011;5013;51.840;8.276;2023-06-26T12:34:39;6.43;;;3.42;;
9948;SDS011;5013;51.840;8.276;2023-06-26T12:37:06;4.40;;;2.95;;
9948;SDS011;5013;51.840;8.276;2023-06-26T12:42:15;8.80;;;3.38;;
9948;SDS011;5013;51.840;8.276;2023-06-26T12:44:42;4.30;;;3.10;;
9948;SDS011;5013;51.840;8.276;2023-06-26T12:47:08;5.93;;;3.15;;
9948;SDS011;5013;51.840;8.276;2023-06-26T12:49:38;3.38;;;3.08;;
9948;SDS011;5013;51.840;8.276;2023-06-26T12:52:05;3.90;;;3.22;;
9948;SDS011;5013;51.840;8.276;2023-06-26T12:54:36;3.70;;;3.15;;
9948;SDS011;5013;51.840;8.276;2023-06-26T12:57:03;3.70;;;3.40;;
9948;SDS011;5013;51.840;8.276;2023-06-26T12:59:30;8.40;;;3.45;;
9948;SDS011;5013;51.840;8.276;2023-06-26T13:01:57;5.68;;;3.15;;
9948;SDS011;5013;51.840;8.276;2023-06-26T13:04:23;3.17;;;2.90;;
9948;SDS011;5013;51.840;8.276;2023-06-26T13:06:48;5.50;;;3.50;;
9948;SDS011;5013;51.840;8.276;2023-06-26T13:09:15;9.98;;;3.45;;
9948;SDS011;5013;51.840;8.276;2023-06-26T13:11:41;3.88;;;3.47;;
9948;SDS011;5013;51.840;8.276;2023-06-26T13:14:06;4.25;;;3.70;;
9948;SDS011;5013;51.840;8.276;2023-06-26T13:16:32;9.98;;;3.45;;
9948;SDS011;5013;51.840;8.276;2023-06-26T13:18:58;5.70;;;3.63;;
9948;SDS011;5013;51.840;8.276;2023-06-26T13:21:24;3.95;;;3.63;;
9948;SDS011;5013;51.840;8.276;2023-06-26T13:23:49;4.82;;;3.20;;
9948;SDS011;5013;51.840;8.276;2023-06-26T13:26:15;7.38;;;3.28;;
9948;SDS011;5013;51.840;8.276;2023-06-26T13:28:41;5.15;;;3.65;;
9948;SDS011;5013;51.840;8.276;2023-06-26T13:31:06;7.30;;;3.67;;
9948;SDS011;5013;51.840;8.276;2023-06-26T13:33:32;6.88;;;3.20;;
9948;SDS011;5013;51.840;8.276;2023-06-26T13:35:57;11.20;;;3.47;;
9948;SDS011;5013;51.840;8.276;2023-06-26T13:38:24;6.72;;;3.30;;
9948;SDS011;5013;51.840;8.276;2023-06-26T13:40:51;10.27;;;3.33;;
9948;SDS011;5013;51.840;8.276;2023-06-26T13:43:17;8.98;;;2.63;;
9948;SDS011;5013;51.840;8.276;2023-06-26T13:45:43;5.47;;;2.97;;
9948;SDS011;5013;51.840;8.276;2023-06-26T13:48:09;4.03;;;2.92;;
9948;SDS011;5013;51.840;8.276;2023-06-26T13:50:35;12.80;;;2.65;;
9948;SDS011;5013;51.840;8.276;2023-06-26T13:53:00;8.05;;;2.88;;
9948;SDS011;5013;51.840;8.276;2023-06-26T13:55:27;6.53;;;2.42;;
9948;SDS011;5013;51.840;8.276;2023-06-26T13:57:53;4.35;;;2.30;;
9948;SDS011;5013;51.840;8.276;2023-06-26T14:00:20;2.55;;;2.35;;
9948;SDS011;5013;51.840;8.276;2023-06-26T14:02:47;3.72;;;2.30;;
9948;SDS011;5013;51.840;8.276;2023-06-26T14:05:16;9.90;;;2.40;;
9948;SDS011;5013;51.840;8.276;2023-06-26T14:07:43;2.80;;;2.10;;
9948;SDS011;5013;51.840;8.276;2023-06-26T14:10:09;2.53;;;2.30;;
9948;SDS011;5013;51.840;8.276;2023-06-26T14:12:35;2.65;;;2.28;;
9948;SDS011;5013;51.840;8.276;2023-06-26T14:15:00;3.03;;;2.33;;
9948;SDS011;5013;51.840;8.276;2023-06-26T14:17:26;2.35;;;1.90;;
9948;SDS011;5013;51.840;8.276;2023-06-26T14:19:52;5.75;;;2.05;;
9948;SDS011;5013;51.840;8.276;2023-06-26T14:22:18;7.82;;;2.05;;
9948;SDS011;5013;51.840;8.276;2023-06-26T14:24:44;3.15;;;1.92;;
9948;SDS011;5013;51.840;8.276;2023-06-26T14:27:09;6.55;;;2.20;;
9948;SDS011;5013;51.840;8.276;2023-06-26T14:29:35;7.10;;;1.90;;
9948;SDS011;5013;51.840;8.276;2023-06-26T14:32:02;8.60;;;2.28;;
9948;SDS011;5013;51.840;8.276;2023-06-26T14:34:28;4.00;;;2.00;;
9948;SDS011;5013;51.840;8.276;2023-06-26T14:36:53;5.05;;;2.00;;
9948;SDS011;5013;51.840;8.276;2023-06-26T14:39:19;4.15;;;2.20;;
9948;SDS011;5013;51.840;8.276;2023-06-26T14:41:45;5.85;;;2.13;;
9948;SDS011;5013;51.840;8.276;2023-06-26T14:44:12;4.50;;;1.75;;
9948;SDS011;5013;51.840;8.276;2023-06-26T14:46:38;3.08;;;1.98;;
9948;SDS011;5013;51.840;8.276;2023-06-26T14:49:03;5.65;;;2.17;;
9948;SDS011;5013;51.840;8.276;2023-06-26T14:51:29;7.63;;;1.95;;
9948;SDS011;5013;51.840;8.276;2023-06-26T14:53:54;2.63;;;1.80;;
9948;SDS011;5013;51.840;8.276;2023-06-26T14:56:20;4.75;;;2.05;;
9948;SDS011;5013;51.840;8.276;2023-06-26T14:58:46;1.83;;;1.65;;
9948;SDS011;5013;51.840;8.276;2023-06-26T15:01:16;1.70;;;1.60;;
9948;SDS011;5013;51.840;8.276;2023-06-26T15:03:42;3.92;;;1.90;;
9948;SDS011;5013;51.840;8.276;2023-06-26T15:06:07;6.72;;;2.30;;
9948;SDS011;5013;51.840;8.276;2023-06-26T15:08:33;1.98;;;1.80;;
9948;SDS011;5013;51.840;8.276;2023-06-26T15:11:00;4.80;;;1.83;;
9948;SDS011;5013;51.840;8.276;2023-06-26T15:13:27;6.50;;;2.10;;
9948;SDS011;5013;51.840;8.276;2023-06-26T15:15:53;2.92;;;1.70;;
9948;SDS011;5013;51.840;8.276;2023-06-26T15:18:19;3.55;;;1.95;;